VTBD Airport Information

Runway Information
Runway 03L Length 12139 ft width 197 ft
Elevation 7 ft Threshold 0 ft Heading 29
Runway 21R Length 12139 ft Width 197 ft
Elevation 7 ft Threshold 0 ft Heading 209
Runway 03R Length 11483 ft width 148 ft
Elevation 7 ft Threshold 0 ft Heading 29
Runway 21L Length 11483 ft Width 148 ft
Elevation 8 ft Threshold 1148 ft Heading 209
Airport Frequencies
Type APP Name APP Frequency 119.4 MHZ
Type ARR Name ARR Frequency 125.5 MHZ
Type ATIS Name ATIS Frequency 126.4 MHZ
Type CLD Name CLNC DEL Frequency 125.95 MHZ
Type GND Name GND Frequency 121.9 MHZ
Type TWR Name TWR Frequency 118.1 MHZ
Airport Navaids
Type NDB Name Bangkok Frequency 293 KHZ
Type VOR-DME Name Bangkok Frequency 117700 KHZ
Airport Weather Information & NOTAM
ADDS - METARS form results

(0240 UTC 22 January 2019)
Data provider http://aviationweather.gov/metar/data/
 
METAR text: VTBD 220230Z 11010KT 9999 FEW030 28/19 Q1016 NOSIG
Conditions at: VTBD (BANGKOK/DON MUAN, TH) observed 0230 UTC 22 January 2019
Temperature: 28.0°C (82°F)
Dewpoint: 19.0°C (66°F) [RH = 58%]
Pressure (altimeter): 30.00 inches Hg (1016.0 mb)
Winds: from the ESE (110 degrees) at 12 MPH (10 knots; 5.1 m/s)
Visibility: 6 or more miles (10+ km)
Ceiling: at least 12,000 feet AGL
Clouds: few clouds at 3000 feet AGL
Weather: no significant weather observed at this time

METAR text: VTBD 220200Z 12009KT 9000 FEW030 26/19 Q1016 NOSIG
Conditions at: VTBD (BANGKOK/DON MUAN, TH) observed 0200 UTC 22 January 2019
Temperature: 26.0°C (79°F)
Dewpoint: 19.0°C (66°F) [RH = 65%]
Pressure (altimeter): 30.00 inches Hg (1016.0 mb)
Winds: from the ESE (120 degrees) at 10 MPH (9 knots; 4.6 m/s)
Visibility: 6 miles ( 9 km)
Ceiling: at least 12,000 feet AGL
Clouds: few clouds at 3000 feet AGL
Weather: no significant weather observed at this time

Forecast for: VTBD (BANGKOK/DON MUAN, TH)
Text: TAF VTBD 212300Z 2200/2306 07005KT 3000 BR FEW030
Forecast period: 0000 to 0400 UTC 22 January 2019
Forecast type: FROM: standard forecast or significant change
Winds: from the ENE (70 degrees) at 6 MPH (5 knots; 2.6 m/s)
Visibility: 1.86 miles (2.99 km)
Ceiling: at least 12,000 feet AGL
Clouds: few clouds at 3000 feet AGL
Weather: BR  (mist)
Text: BECMG 2204/2206 9999 NSW
Forecast period: 0400 UTC 22 January 2019 to 0600 UTC 23 January 2019
Forecast type: BECOMING: Conditions expected to become as follows by 0600 UTC 22 January 2019
Winds: from the ENE (70 degrees) at 6 MPH (5 knots; 2.6 m/s)
Visibility: 6 or more miles 10+ km)
Ceiling: at least 12,000 feet AGL
Clouds: few clouds at 3000 feet AGL
Weather: NSW  (no significant weather)